createdAt,value
2023-02-07T00:02:18.463Z,12.60
2023-02-07T00:05:23.407Z,12.80
2023-02-07T00:08:28.179Z,12.60
2023-02-07T00:11:33.318Z,12.60
2023-02-07T00:14:38.042Z,11.80
2023-02-07T00:17:42.774Z,12.00
2023-02-07T00:20:56.757Z,12.50
2023-02-07T00:24:01.642Z,12.40
2023-02-07T00:27:07.117Z,11.80
2023-02-07T00:30:14.517Z,11.60
2023-02-07T00:33:19.204Z,12.20
2023-02-07T00:36:27.010Z,12.10
2023-02-07T00:39:31.790Z,12.70
2023-02-07T00:42:36.989Z,11.30
2023-02-07T00:45:41.668Z,11.70
2023-02-07T00:48:47.512Z,11.60
2023-02-07T00:51:53.126Z,12.70
2023-02-07T00:54:58.118Z,12.30
2023-02-07T00:58:03.222Z,12.90
2023-02-07T01:01:08.073Z,11.70
2023-02-07T01:04:12.812Z,12.80
2023-02-07T01:07:17.965Z,12.20
2023-02-07T01:10:24.067Z,14.50
2023-02-07T01:13:28.962Z,12.40
2023-02-07T01:16:36.135Z,10.80
2023-02-07T01:19:41.973Z,12.20
2023-02-07T01:22:47.818Z,14.00
2023-02-07T01:25:52.579Z,12.70
2023-02-07T01:28:57.583Z,13.30
2023-02-07T01:32:02.410Z,12.50
2023-02-07T01:35:08.586Z,13.10
2023-02-07T01:38:13.665Z,12.20
2023-02-07T01:41:18.833Z,13.90
2023-02-07T01:45:04.950Z,13.00
2023-02-07T01:48:15.784Z,11.40
2023-02-07T01:51:21.428Z,11.40
2023-02-07T01:54:32.787Z,12.20
2023-02-07T01:57:38.890Z,12.60
2023-02-07T02:00:45.510Z,13.20
2023-02-07T02:03:55.093Z,12.50
2023-02-07T02:07:00.196Z,12.80
2023-02-07T02:10:15.017Z,12.50
2023-02-07T02:13:32.019Z,11.60
2023-02-07T02:16:44.947Z,12.90
2023-02-07T02:20:37.516Z,12.50
2023-02-07T02:24:07.727Z,12.70
2023-02-07T02:27:25.878Z,11.20
2023-02-07T02:31:08.498Z,12.40
2023-02-07T02:34:22.430Z,13.10
2023-02-07T02:37:39.311Z,12.50
2023-02-07T02:40:55.635Z,12.40
2023-02-07T02:44:10.991Z,11.80
2023-02-07T02:47:17.310Z,11.20
2023-02-07T02:50:27.531Z,12.30
2023-02-07T02:53:33.357Z,11.80
2023-02-07T02:57:11.177Z,12.80
2023-02-07T03:00:50.848Z,12.80
2023-02-07T03:07:36.777Z,9.90
2023-02-07T03:10:52.028Z,10.60
2023-02-07T03:14:09.946Z,13.80
2023-02-07T03:17:24.475Z,13.80
2023-02-07T03:20:37.364Z,13.20
2023-02-07T03:23:44.025Z,13.40
2023-02-07T03:26:52.148Z,13.40
2023-02-07T03:29:59.544Z,11.80
2023-02-07T03:33:11.058Z,11.60
2023-02-07T03:36:24.763Z,12.80
2023-02-07T03:39:30.617Z,12.90
2023-02-07T03:42:41.650Z,11.90
2023-02-07T03:45:46.573Z,13.70
2023-02-07T03:48:51.515Z,13.40
2023-02-07T03:51:56.520Z,12.10
2023-02-07T03:55:01.585Z,13.30
2023-02-07T03:58:07.925Z,12.00
2023-02-07T04:01:12.981Z,11.00
2023-02-07T04:04:18.090Z,12.90
2023-02-07T04:07:23.043Z,13.20
2023-02-07T04:10:28.277Z,11.60
2023-02-07T04:13:33.531Z,13.20
2023-02-07T04:16:38.428Z,13.50
2023-02-07T04:19:43.639Z,13.20
2023-02-07T04:22:48.454Z,14.40
2023-02-07T04:25:53.631Z,14.10
2023-02-07T04:28:58.414Z,14.20
2023-02-07T04:32:04.004Z,15.40
2023-02-07T04:35:10.555Z,14.20
2023-02-07T04:38:15.479Z,13.20
2023-02-07T04:41:20.617Z,13.90
2023-02-07T04:44:26.113Z,12.50
2023-02-07T04:47:31.029Z,13.00
2023-02-07T04:50:37.594Z,12.80
2023-02-07T04:53:42.747Z,12.70
2023-02-07T04:56:47.581Z,10.90
2023-02-07T04:59:52.415Z,10.60
2023-02-07T05:03:00.405Z,12.90
2023-02-07T05:06:06.691Z,12.60
2023-02-07T05:09:11.889Z,12.30
2023-02-07T05:12:16.745Z,11.90
2023-02-07T05:15:22.092Z,12.30
2023-02-07T05:18:26.999Z,11.30
2023-02-07T05:21:32.377Z,11.90
2023-02-07T05:24:38.050Z,13.70
2023-02-07T05:27:43.085Z,12.10
2023-02-07T05:30:48.378Z,12.50
2023-02-07T05:33:53.118Z,13.20
2023-02-07T05:36:59.074Z,12.30
2023-02-07T05:40:05.256Z,13.20
2023-02-07T05:43:11.417Z,13.40
2023-02-07T05:46:16.311Z,13.80
2023-02-07T05:49:21.080Z,14.00
2023-02-07T05:52:27.186Z,14.10
2023-02-07T05:55:32.397Z,13.20
2023-02-07T05:58:37.891Z,12.90
2023-02-07T06:01:42.907Z,14.00
2023-02-07T06:04:47.800Z,13.80
2023-02-07T06:07:53.356Z,14.10
2023-02-07T06:10:58.300Z,13.00
2023-02-07T06:14:04.449Z,13.80
2023-02-07T06:17:09.089Z,13.50
2023-02-07T06:20:14.872Z,14.20
2023-02-07T06:23:22.537Z,12.00
2023-02-07T06:26:27.469Z,13.40
2023-02-07T06:29:32.423Z,14.30
2023-02-07T06:32:37.497Z,14.30
2023-02-07T06:35:46.790Z,13.50
2023-02-07T06:38:55.151Z,13.50
2023-02-07T06:42:00.118Z,12.80
2023-02-07T06:45:06.041Z,13.30
2023-02-07T06:48:11.562Z,13.60
2023-02-07T06:51:16.793Z,12.50
2023-02-07T06:54:22.258Z,10.60
2023-02-07T06:57:27.839Z,12.30
2023-02-07T07:00:33.107Z,13.40
2023-02-07T07:03:38.104Z,13.80
2023-02-07T07:06:42.838Z,11.00
2023-02-07T07:09:48.104Z,12.10
2023-02-07T07:12:53.037Z,13.10
2023-02-07T07:15:58.209Z,14.80
2023-02-07T07:19:03.619Z,12.20
2023-02-07T07:22:08.315Z,14.90
2023-02-07T07:25:13.214Z,14.40
2023-02-07T07:28:18.314Z,12.60
2023-02-07T07:31:23.190Z,14.80
2023-02-07T07:34:28.082Z,12.00
2023-02-07T07:37:33.522Z,10.70
2023-02-07T07:40:39.166Z,13.70
2023-02-07T07:43:44.002Z,12.70
2023-02-07T07:46:49.706Z,12.30
2023-02-07T07:49:55.326Z,11.70
2023-02-07T07:53:00.224Z,11.50
2023-02-07T07:56:06.966Z,10.20
2023-02-07T07:59:20.058Z,10.10
2023-02-07T08:02:28.436Z,11.40
2023-02-07T08:05:33.210Z,10.50
2023-02-07T08:08:38.855Z,12.40
2023-02-07T08:11:43.959Z,11.10
2023-02-07T08:14:49.136Z,12.60
2023-02-07T08:17:54.794Z,14.60
2023-02-07T08:21:00.555Z,14.00
2023-02-07T08:24:06.395Z,14.70
2023-02-07T08:27:11.708Z,13.40
2023-02-07T08:30:18.386Z,14.50
2023-02-07T08:33:23.633Z,12.90
2023-02-07T08:36:28.531Z,13.60
2023-02-07T08:39:34.968Z,13.70
2023-02-07T08:42:40.156Z,12.50
2023-02-07T08:45:49.542Z,14.70
2023-02-07T08:48:54.719Z,13.50
2023-02-07T08:52:00.042Z,15.00
2023-02-07T08:55:05.871Z,15.70
2023-02-07T08:58:11.197Z,15.80
2023-02-07T09:01:16.015Z,14.30
2023-02-07T09:04:21.396Z,17.10
2023-02-07T09:07:26.262Z,17.40
2023-02-07T09:10:32.704Z,19.60
2023-02-07T09:13:37.571Z,15.70
2023-02-07T09:16:44.896Z,19.80
2023-02-07T09:19:49.750Z,19.40
2023-02-07T09:23:12.858Z,19.50
2023-02-07T09:26:22.696Z,18.70
2023-02-07T09:29:27.935Z,14.60
2023-02-07T09:32:32.966Z,18.30
2023-02-07T09:35:40.771Z,16.50
2023-02-07T09:38:45.595Z,16.10
2023-02-07T09:42:05.583Z,13.30
2023-02-07T09:45:16.992Z,16.90
2023-02-07T09:48:27.575Z,16.50
2023-02-07T09:51:34.881Z,19.10
2023-02-07T09:54:45.731Z,17.90
2023-02-07T09:57:58.727Z,17.00
2023-02-07T10:01:14.669Z,17.80
2023-02-07T10:04:35.172Z,19.10
2023-02-07T10:07:40.903Z,18.30
2023-02-07T10:10:52.988Z,21.10
2023-02-07T10:14:19.230Z,20.00
2023-02-07T10:17:43.532Z,17.20
2023-02-07T10:20:58.826Z,19.10
2023-02-07T10:24:32.676Z,20.20
2023-02-07T10:27:50.588Z,17.90
2023-02-07T10:31:02.344Z,19.30
2023-02-07T10:34:16.084Z,16.80
2023-02-07T10:37:24.484Z,18.10
2023-02-07T10:40:40.293Z,16.90
2023-02-07T10:43:48.712Z,17.40
2023-02-07T10:47:00.503Z,16.20
2023-02-07T10:50:16.061Z,16.20
2023-02-07T10:53:54.275Z,18.50
2023-02-07T10:57:03.089Z,16.30
2023-02-07T11:00:24.191Z,17.60
2023-02-07T11:03:30.564Z,16.50
2023-02-07T11:06:36.466Z,18.70
2023-02-07T11:09:41.494Z,17.60
2023-02-07T11:13:04.941Z,18.60
2023-02-07T11:16:11.512Z,16.60
2023-02-07T11:19:22.672Z,19.00
2023-02-07T11:22:30.772Z,19.50
2023-02-07T11:25:42.025Z,14.30
2023-02-07T11:28:51.249Z,15.20
2023-02-07T11:32:00.509Z,10.80
2023-02-07T11:35:18.472Z,15.70
2023-02-07T11:38:23.698Z,15.00
2023-02-07T11:41:40.066Z,13.00
2023-02-07T11:44:47.460Z,15.50
2023-02-07T11:47:58.015Z,14.10
2023-02-07T11:51:08.805Z,13.00
2023-02-07T11:54:22.926Z,13.40
2023-02-07T11:57:32.386Z,12.80
2023-02-07T12:00:43.214Z,12.60
2023-02-07T12:03:57.951Z,11.60
2023-02-07T12:07:09.380Z,11.30
2023-02-07T12:10:22.713Z,11.20
2023-02-07T12:13:34.634Z,9.70
2023-02-07T12:16:49.176Z,10.90
2023-02-07T12:20:04.592Z,10.70
2023-02-07T12:23:41.414Z,11.40
2023-02-07T12:26:55.964Z,10.80
2023-02-07T12:30:11.012Z,10.70
2023-02-07T12:33:34.550Z,11.20
2023-02-07T12:36:45.263Z,10.40
2023-02-07T12:40:02.613Z,10.90
2023-02-07T12:43:18.888Z,10.60
2023-02-07T12:46:36.791Z,11.60
2023-02-07T12:50:08.421Z,11.60
2023-02-07T12:53:32.287Z,11.70
2023-02-07T12:56:52.320Z,10.80
2023-02-07T13:00:12.959Z,11.10
2023-02-07T13:03:33.665Z,11.70
2023-02-07T13:06:48.552Z,12.00
2023-02-07T13:10:10.478Z,11.80
2023-02-07T13:13:24.283Z,11.70
2023-02-07T13:16:42.894Z,11.60
2023-02-07T13:19:56.332Z,11.80
2023-02-07T13:23:09.332Z,12.10
2023-02-07T13:26:19.396Z,11.90
2023-02-07T13:29:28.030Z,12.00
2023-02-07T13:32:32.957Z,13.00
2023-02-07T13:35:40.199Z,11.70
2023-02-07T13:39:13.912Z,12.10
2023-02-07T13:42:31.893Z,13.10
2023-02-07T13:45:51.042Z,12.50
2023-02-07T13:49:06.877Z,13.10
2023-02-07T13:52:21.997Z,13.60
2023-02-07T13:55:34.655Z,14.10
2023-02-07T13:59:13.407Z,14.60
2023-02-07T14:02:22.222Z,13.90
2023-02-07T14:05:31.457Z,13.00
2023-02-07T14:08:36.978Z,14.30
2023-02-07T14:11:45.118Z,15.50
2023-02-07T14:15:02.296Z,15.80
2023-02-07T14:18:48.831Z,14.70
2023-02-07T14:22:21.071Z,16.00
2023-02-07T14:25:39.671Z,15.00
2023-02-07T14:28:46.117Z,14.60
2023-02-07T14:31:54.761Z,14.70
2023-02-07T14:35:28.966Z,15.20
2023-02-07T14:38:38.953Z,15.90
2023-02-07T14:41:46.115Z,14.90
2023-02-07T14:44:57.170Z,15.50
2023-02-07T14:48:04.149Z,14.00
2023-02-07T14:51:14.537Z,14.20
2023-02-07T14:54:29.072Z,14.60
2023-02-07T14:57:47.234Z,14.30
2023-02-07T15:00:58.851Z,14.10
2023-02-07T15:04:06.083Z,14.50
2023-02-07T15:07:13.251Z,14.20
2023-02-07T15:10:26.020Z,13.80
2023-02-07T15:13:37.332Z,13.10
2023-02-07T15:16:42.423Z,14.40
2023-02-07T15:19:47.528Z,12.80
2023-02-07T15:22:56.345Z,12.10
2023-02-07T15:26:07.426Z,13.80
2023-02-07T15:29:25.520Z,12.60
2023-02-07T15:32:34.809Z,11.90
2023-02-07T15:35:39.877Z,11.70
2023-02-07T15:38:47.204Z,11.80
2023-02-07T15:41:55.108Z,12.40
2023-02-07T15:45:00.206Z,12.20
2023-02-07T15:48:14.570Z,12.40
2023-02-07T15:51:25.111Z,12.80
2023-02-07T15:54:31.204Z,12.40
2023-02-07T15:57:42.854Z,11.90
2023-02-07T16:00:48.716Z,11.90
2023-02-07T16:03:57.848Z,11.90
2023-02-07T16:07:07.615Z,12.20
2023-02-07T16:10:34.145Z,11.40
2023-02-07T16:13:47.516Z,12.10
2023-02-07T16:16:58.579Z,12.60
2023-02-07T16:20:03.374Z,12.60
2023-02-07T16:23:12.810Z,13.10
2023-02-07T16:26:21.302Z,13.20
2023-02-07T16:29:26.869Z,12.10
2023-02-07T16:32:35.468Z,12.50
2023-02-07T16:35:41.985Z,11.80
2023-02-07T16:38:46.768Z,13.10
2023-02-07T16:41:57.230Z,11.90
2023-02-07T16:45:01.969Z,12.50
2023-02-07T16:48:13.755Z,12.10
2023-02-07T16:51:19.388Z,13.20
2023-02-07T16:54:25.133Z,14.00
2023-02-07T16:57:30.165Z,13.60
2023-02-07T17:00:36.063Z,13.20
2023-02-07T17:03:41.096Z,11.80
2023-02-07T17:06:47.242Z,12.20
2023-02-07T17:09:52.170Z,10.60
2023-02-07T17:12:58.555Z,11.70
2023-02-07T17:16:03.334Z,14.20
2023-02-07T17:19:23.171Z,14.00
2023-02-07T17:22:31.459Z,13.40
2023-02-07T17:25:40.492Z,13.50
2023-02-07T17:28:46.796Z,13.30
2023-02-07T17:31:57.834Z,10.90
2023-02-07T17:35:03.559Z,12.00
2023-02-07T17:38:15.066Z,11.40
2023-02-07T17:41:24.777Z,13.30
2023-02-07T17:44:32.359Z,14.40
2023-02-07T17:47:48.060Z,13.00
2023-02-07T17:50:55.981Z,12.60
2023-02-07T17:54:05.740Z,13.00
2023-02-07T17:57:22.362Z,12.60
2023-02-07T18:00:43.165Z,13.00
2023-02-07T18:03:53.697Z,13.20
2023-02-07T18:07:05.411Z,13.50
2023-02-07T18:10:27.535Z,12.70
2023-02-07T18:13:34.491Z,12.90
2023-02-07T18:16:40.939Z,12.70
2023-02-07T18:19:46.293Z,12.30
2023-02-07T18:22:57.719Z,13.30
2023-02-07T18:26:17.843Z,12.70
2023-02-07T18:29:28.400Z,12.20
2023-02-07T18:32:33.677Z,12.80
2023-02-07T18:35:39.054Z,12.70
2023-02-07T18:38:49.307Z,12.10
2023-02-07T18:41:55.821Z,12.30
2023-02-07T18:45:05.958Z,11.40
2023-02-07T18:48:11.195Z,11.20
2023-02-07T18:51:18.810Z,13.40
2023-02-07T18:54:24.347Z,12.20
2023-02-07T18:57:29.376Z,13.10
2023-02-07T19:00:35.767Z,12.20
2023-02-07T19:03:43.235Z,10.40
2023-02-07T19:06:51.269Z,12.50
2023-02-07T19:09:57.199Z,13.30
2023-02-07T19:13:02.546Z,12.00
2023-02-07T19:16:11.737Z,13.40
2023-02-07T19:19:20.253Z,13.00
2023-02-07T19:22:35.403Z,12.30
2023-02-07T19:25:48.832Z,12.20
2023-02-07T19:28:54.747Z,13.60
2023-02-07T19:32:02.867Z,12.90
2023-02-07T19:35:08.943Z,13.20
2023-02-07T19:38:15.021Z,12.60
2023-02-07T19:41:20.979Z,13.70
2023-02-07T19:44:25.942Z,13.10
2023-02-07T19:47:31.035Z,14.40
2023-02-07T19:50:36.938Z,14.20
2023-02-07T19:53:44.918Z,14.10
2023-02-07T19:56:51.791Z,16.00
2023-02-07T19:59:57.067Z,18.50
2023-02-07T20:03:02.514Z,17.00
2023-02-07T20:06:13.148Z,14.20
2023-02-07T20:09:18.321Z,13.60
2023-02-07T20:12:24.426Z,13.40
2023-02-07T20:15:30.088Z,14.70
2023-02-07T20:18:35.797Z,14.40
2023-02-07T20:21:41.459Z,16.50
2023-02-07T20:24:47.301Z,16.50
2023-02-07T20:27:52.968Z,18.20
2023-02-07T20:30:58.867Z,17.50
2023-02-07T20:34:06.107Z,16.20
2023-02-07T20:37:12.263Z,15.00
2023-02-07T20:40:18.213Z,16.00
2023-02-07T20:43:23.792Z,16.10
2023-02-07T20:46:31.154Z,16.10
2023-02-07T20:49:35.909Z,15.70
2023-02-07T20:52:46.144Z,16.40
2023-02-07T20:55:55.181Z,15.60
2023-02-07T21:02:11.439Z,12.60
2023-02-07T21:08:22.895Z,13.60
2023-02-07T21:11:30.514Z,16.50
2023-02-07T21:14:36.343Z,16.90
2023-02-07T21:17:41.531Z,17.60
2023-02-07T21:20:46.801Z,15.80
2023-02-07T21:23:52.414Z,17.10
2023-02-07T21:26:58.064Z,16.00
2023-02-07T21:30:03.653Z,16.50
2023-02-07T21:33:09.174Z,17.70
2023-02-07T21:36:16.944Z,16.60
2023-02-07T21:39:23.823Z,18.00
2023-02-07T21:42:28.684Z,16.10
2023-02-07T21:45:33.639Z,17.80
2023-02-07T21:48:41.200Z,18.00
2023-02-07T21:51:48.664Z,18.20
2023-02-07T21:54:54.193Z,19.40
2023-02-07T21:57:59.147Z,27.40
2023-02-07T22:01:11.294Z,35.10
2023-02-07T22:04:17.173Z,41.10
2023-02-07T22:07:21.998Z,43.30
2023-02-07T22:10:27.232Z,41.80
2023-02-07T22:13:34.591Z,38.10
2023-02-07T22:16:39.480Z,28.20
2023-02-07T22:19:44.616Z,22.60
2023-02-07T22:22:49.469Z,22.40
2023-02-07T22:25:57.069Z,19.70
2023-02-07T22:29:03.257Z,18.90
2023-02-07T22:32:08.723Z,21.10
2023-02-07T22:35:13.459Z,22.80
2023-02-07T22:38:18.325Z,20.90
2023-02-07T22:41:23.664Z,20.20
2023-02-07T22:44:28.573Z,20.00
2023-02-07T22:47:34.029Z,22.20
2023-02-07T22:50:39.701Z,21.00
2023-02-07T22:53:45.552Z,17.00
2023-02-07T22:56:51.026Z,22.30
2023-02-07T23:00:00.115Z,22.20
2023-02-07T23:03:05.182Z,21.90
2023-02-07T23:06:10.222Z,20.00
2023-02-07T23:09:16.148Z,19.80
2023-02-07T23:12:21.251Z,18.80
2023-02-07T23:15:26.255Z,18.10
2023-02-07T23:18:31.132Z,18.20
2023-02-07T23:21:36.980Z,19.60
2023-02-07T23:24:42.020Z,18.40
2023-02-07T23:27:47.406Z,19.50
2023-02-07T23:30:53.711Z,18.10
2023-02-07T23:33:59.261Z,20.00
2023-02-07T23:37:04.112Z,19.50
2023-02-07T23:40:11.325Z,18.50
2023-02-07T23:43:19.275Z,20.30
2023-02-07T23:46:25.064Z,19.70
2023-02-07T23:49:31.094Z,20.40
2023-02-07T23:52:35.989Z,20.00
2023-02-07T23:55:43.031Z,19.30
2023-02-07T23:58:49.481Z,19.50
